sensor_id;sensor_type;location;lat;lon;timestamp;pressure;altitude;pressure_sealevel;temperature;humidity
15884;BME280;8040;50.254;10.960;2023-12-14T00:01:52;97065.50;;;8.96;84.74
15884;BME280;8040;50.254;10.960;2023-12-14T00:04:17;97069.63;;;8.94;84.76
15884;BME280;8040;50.254;10.960;2023-12-14T00:06:43;97070.91;;;8.96;84.75
15884;BME280;8040;50.254;10.960;2023-12-14T00:09:08;97072.31;;;8.94;84.39
15884;BME280;8040;50.254;10.960;2023-12-14T00:11:39;97068.03;;;8.93;83.91
15884;BME280;8040;50.254;10.960;2023-12-14T00:14:05;97076.47;;;8.91;84.61
15884;BME280;8040;50.254;10.960;2023-12-14T00:16:30;97079.31;;;8.95;84.20
15884;BME280;8040;50.254;10.960;2023-12-14T00:18:55;97084.09;;;8.98;84.16
15884;BME280;8040;50.254;10.960;2023-12-14T00:21:21;97077.72;;;8.94;84.46
15884;BME280;8040;50.254;10.960;2023-12-14T00:23:46;97083.78;;;8.99;84.08
15884;BME280;8040;50.254;10.960;2023-12-14T00:26:11;97076.63;;;8.95;84.72
15884;BME280;8040;50.254;10.960;2023-12-14T00:28:37;97084.88;;;8.98;84.43
15884;BME280;8040;50.254;10.960;2023-12-14T00:31:03;97090.47;;;9.02;84.07
15884;BME280;8040;50.254;10.960;2023-12-14T00:33:28;97097.31;;;9.08;84.08
15884;BME280;8040;50.254;10.960;2023-12-14T00:35:53;97096.84;;;9.06;83.93
15884;BME280;8040;50.254;10.960;2023-12-14T00:38:19;97103.53;;;9.08;83.14
15884;BME280;8040;50.254;10.960;2023-12-14T00:40:44;97100.66;;;9.05;83.56
15884;BME280;8040;50.254;10.960;2023-12-14T00:43:09;97103.03;;;9.06;83.92
15884;BME280;8040;50.254;10.960;2023-12-14T00:45:35;97099.53;;;9.14;83.52
15884;BME280;8040;50.254;10.960;2023-12-14T00:48:00;97107.81;;;9.09;84.07
15884;BME280;8040;50.254;10.960;2023-12-14T00:50:25;97110.03;;;9.16;83.68
15884;BME280;8040;50.254;10.960;2023-12-14T00:52:51;97112.56;;;9.12;83.63
15884;BME280;8040;50.254;10.960;2023-12-14T00:55:16;97115.28;;;9.12;84.10
15884;BME280;8040;50.254;10.960;2023-12-14T00:57:41;97118.16;;;9.16;84.00
15884;BME280;8040;50.254;10.960;2023-12-14T01:00:07;97120.84;;;9.16;83.37
15884;BME280;8040;50.254;10.960;2023-12-14T01:02:34;97129.31;;;9.14;82.99
15884;BME280;8040;50.254;10.960;2023-12-14T01:04:59;97135.47;;;9.06;83.12
15884;BME280;8040;50.254;10.960;2023-12-14T01:07:25;97137.06;;;9.07;83.27
15884;BME280;8040;50.254;10.960;2023-12-14T01:09:50;97149.00;;;9.06;83.17
15884;BME280;8040;50.254;10.960;2023-12-14T01:12:15;97147.56;;;9.00;82.54
15884;BME280;8040;50.254;10.960;2023-12-14T01:14:41;97148.66;;;8.91;82.42
15884;BME280;8040;50.254;10.960;2023-12-14T01:17:06;97152.94;;;8.92;83.13
15884;BME280;8040;50.254;10.960;2023-12-14T01:19:31;97162.31;;;8.86;83.40
15884;BME280;8040;50.254;10.960;2023-12-14T01:21:56;97160.72;;;8.85;84.45
15884;BME280;8040;50.254;10.960;2023-12-14T01:24:22;97173.66;;;8.96;84.41
15884;BME280;8040;50.254;10.960;2023-12-14T01:26:47;97172.06;;;8.95;83.60
15884;BME280;8040;50.254;10.960;2023-12-14T01:29:12;97171.53;;;8.85;83.84
15884;BME280;8040;50.254;10.960;2023-12-14T01:31:37;97175.38;;;8.84;83.86
15884;BME280;8040;50.254;10.960;2023-12-14T01:34:03;97179.50;;;8.81;83.72
15884;BME280;8040;50.254;10.960;2023-12-14T01:36:28;97184.59;;;8.83;84.29
15884;BME280;8040;50.254;10.960;2023-12-14T01:38:53;97186.66;;;8.86;84.30
15884;BME280;8040;50.254;10.960;2023-12-14T01:41:19;97191.16;;;8.90;83.70
15884;BME280;8040;50.254;10.960;2023-12-14T01:43:44;97191.16;;;8.90;83.47
15884;BME280;8040;50.254;10.960;2023-12-14T01:46:10;97191.75;;;8.87;83.61
15884;BME280;8040;50.254;10.960;2023-12-14T01:48:35;97185.56;;;8.87;83.70
15884;BME280;8040;50.254;10.960;2023-12-14T01:51:00;97198.28;;;8.86;83.87
15884;BME280;8040;50.254;10.960;2023-12-14T01:53:26;97199.56;;;8.89;83.80
15884;BME280;8040;50.254;10.960;2023-12-14T01:55:51;97203.22;;;8.84;84.02
15884;BME280;8040;50.254;10.960;2023-12-14T01:58:17;97206.09;;;8.88;83.44
15884;BME280;8040;50.254;10.960;2023-12-14T02:00:58;97213.38;;;8.87;83.22
15884;BME280;8040;50.254;10.960;2023-12-14T02:03:25;97226.13;;;8.87;83.61
15884;BME280;8040;50.254;10.960;2023-12-14T02:05:50;97222.91;;;8.85;83.39
15884;BME280;8040;50.254;10.960;2023-12-14T02:08:15;97225.97;;;8.83;82.86
15884;BME280;8040;50.254;10.960;2023-12-14T02:10:41;97227.53;;;8.84;82.59
15884;BME280;8040;50.254;10.960;2023-12-14T02:13:06;97244.06;;;8.83;82.88
15884;BME280;8040;50.254;10.960;2023-12-14T02:15:32;97244.06;;;8.83;82.91
15884;BME280;8040;50.254;10.960;2023-12-14T02:17:58;97238.66;;;8.83;83.35
15884;BME280;8040;50.254;10.960;2023-12-14T02:20:23;97246.34;;;8.89;83.13
15884;BME280;8040;50.254;10.960;2023-12-14T02:22:49;97249.81;;;8.90;82.99
15884;BME280;8040;50.254;10.960;2023-12-14T02:25:15;97246.81;;;8.91;82.94
15884;BME280;8040;50.254;10.960;2023-12-14T02:27:40;97256.66;;;8.87;83.40
15884;BME280;8040;50.254;10.960;2023-12-14T02:30:06;97246.47;;;8.84;83.56
15884;BME280;8040;50.254;10.960;2023-12-14T02:32:31;97251.72;;;8.81;83.78
15884;BME280;8040;50.254;10.960;2023-12-14T02:34:57;97255.88;;;8.87;83.62
15884;BME280;8040;50.254;10.960;2023-12-14T02:37:22;97255.50;;;8.80;83.06
15884;BME280;8040;50.254;10.960;2023-12-14T02:39:47;97262.19;;;8.82;83.62
15884;BME280;8040;50.254;10.960;2023-12-14T02:42:12;97263.47;;;8.85;83.35
15884;BME280;8040;50.254;10.960;2023-12-14T02:44:38;97277.00;;;8.85;83.19
15884;BME280;8040;50.254;10.960;2023-12-14T02:47:03;97272.22;;;8.82;82.79
15884;BME280;8040;50.254;10.960;2023-12-14T02:49:28;97272.69;;;8.84;82.90
15884;BME280;8040;50.254;10.960;2023-12-14T02:51:54;97275.06;;;8.77;83.02
15884;BME280;8040;50.254;10.960;2023-12-14T02:54:19;97275.06;;;8.77;82.81
15884;BME280;8040;50.254;10.960;2023-12-14T02:56:44;97280.00;;;8.75;82.46
15884;BME280;8040;50.254;10.960;2023-12-14T02:59:10;97280.00;;;8.75;83.05
15884;BME280;8040;50.254;10.960;2023-12-14T03:01:35;97283.00;;;8.73;83.04
15884;BME280;8040;50.254;10.960;2023-12-14T03:04:00;97288.41;;;8.73;82.69
15884;BME280;8040;50.254;10.960;2023-12-14T03:06:26;97293.00;;;8.73;83.00
15884;BME280;8040;50.254;10.960;2023-12-14T03:08:51;97293.63;;;8.70;82.75
15884;BME280;8040;50.254;10.960;2023-12-14T03:11:23;97295.00;;;8.59;82.70
15884;BME280;8040;50.254;10.960;2023-12-14T03:13:48;97291.69;;;8.62;83.00
15884;BME280;8040;50.254;10.960;2023-12-14T03:16:14;97302.56;;;8.48;82.56
15884;BME280;8040;50.254;10.960;2023-12-14T03:18:39;97304.53;;;8.56;83.24
15884;BME280;8040;50.254;10.960;2023-12-14T03:21:04;97298.94;;;8.53;83.11
15884;BME280;8040;50.254;10.960;2023-12-14T03:23:30;97307.53;;;8.55;83.62
15884;BME280;8040;50.254;10.960;2023-12-14T03:25:55;97310.22;;;8.55;83.52
15884;BME280;8040;50.254;10.960;2023-12-14T03:28:20;97307.69;;;8.58;83.42
15884;BME280;8040;50.254;10.960;2023-12-14T03:30:46;97312.81;;;8.60;83.23
15884;BME280;8040;50.254;10.960;2023-12-14T03:33:11;97314.28;;;8.66;82.70
15884;BME280;8040;50.254;10.960;2023-12-14T03:35:39;97322.50;;;8.61;83.19
15884;BME280;8040;50.254;10.960;2023-12-14T03:38:07;97324.13;;;8.62;83.57
15884;BME280;8040;50.254;10.960;2023-12-14T03:40:33;97326.84;;;8.62;83.18
15884;BME280;8040;50.254;10.960;2023-12-14T03:42:58;97332.72;;;8.64;83.49
15884;BME280;8040;50.254;10.960;2023-12-14T03:45:23;97338.53;;;8.57;82.85
15884;BME280;8040;50.254;10.960;2023-12-14T03:47:48;97350.78;;;8.55;83.46
15884;BME280;8040;50.254;10.960;2023-12-14T03:50:14;97352.00;;;8.49;83.20
15884;BME280;8040;50.254;10.960;2023-12-14T03:52:39;97353.91;;;8.48;82.83
15884;BME280;8040;50.254;10.960;2023-12-14T03:55:05;97353.22;;;8.43;82.49
15884;BME280;8040;50.254;10.960;2023-12-14T03:57:30;97352.44;;;8.42;82.85
15884;BME280;8040;50.254;10.960;2023-12-14T03:59:55;97360.44;;;8.47;83.11
15884;BME280;8040;50.254;10.960;2023-12-14T04:02:22;97364.44;;;8.50;82.76
15884;BME280;8040;50.254;10.960;2023-12-14T04:04:47;97358.41;;;8.53;82.36
15884;BME280;8040;50.254;10.960;2023-12-14T04:07:13;97366.19;;;8.54;82.16
15884;BME280;8040;50.254;10.960;2023-12-14T04:09:38;97369.63;;;8.46;82.06
15884;BME280;8040;50.254;10.960;2023-12-14T04:12:03;97382.06;;;8.47;81.77
15884;BME280;8040;50.254;10.960;2023-12-14T04:14:29;97377.25;;;8.44;81.92
15884;BME280;8040;50.254;10.960;2023-12-14T04:16:54;97384.56;;;8.44;82.25
15884;BME280;8040;50.254;10.960;2023-12-14T04:19:19;97385.84;;;8.46;82.99
15884;BME280;8040;50.254;10.960;2023-12-14T04:21:45;97391.47;;;8.50;83.42
15884;BME280;8040;50.254;10.960;2023-12-14T04:24:10;97398.28;;;8.47;82.68
15884;BME280;8040;50.254;10.960;2023-12-14T04:26:37;97400.91;;;8.39;83.49
15884;BME280;8040;50.254;10.960;2023-12-14T04:29:03;97400.47;;;8.45;83.80
15884;BME280;8040;50.254;10.960;2023-12-14T04:31:28;97406.50;;;8.42;83.88
15884;BME280;8040;50.254;10.960;2023-12-14T04:33:53;97404.28;;;8.44;84.20
15884;BME280;8040;50.254;10.960;2023-12-14T04:36:19;97412.56;;;8.48;84.12
15884;BME280;8040;50.254;10.960;2023-12-14T04:38:44;97422.25;;;8.49;84.18
15884;BME280;8040;50.254;10.960;2023-12-14T04:41:11;97423.25;;;8.53;83.92
15884;BME280;8040;50.254;10.960;2023-12-14T04:43:36;97432.03;;;8.58;84.35
15884;BME280;8040;50.254;10.960;2023-12-14T04:46:02;97434.56;;;8.55;83.39
15884;BME280;8040;50.254;10.960;2023-12-14T04:48:27;97426.63;;;8.58;83.70
15884;BME280;8040;50.254;10.960;2023-12-14T04:50:53;97429.03;;;8.60;84.14
15884;BME280;8040;50.254;10.960;2023-12-14T04:53:18;97435.06;;;8.57;83.89
15884;BME280;8040;50.254;10.960;2023-12-14T04:55:43;97439.97;;;8.55;84.19
15884;BME280;8040;50.254;10.960;2023-12-14T04:58:09;97443.16;;;8.57;83.71
15884;BME280;8040;50.254;10.960;2023-12-14T05:00:34;97448.56;;;8.57;84.34
15884;BME280;8040;50.254;10.960;2023-12-14T05:02:59;97451.28;;;8.57;84.34
15884;BME280;8040;50.254;10.960;2023-12-14T05:05:24;97456.06;;;8.60;83.86
15884;BME280;8040;50.254;10.960;2023-12-14T05:07:50;97461.28;;;8.56;84.13
15884;BME280;8040;50.254;10.960;2023-12-14T05:10:15;97456.19;;;8.55;84.39
15884;BME280;8040;50.254;10.960;2023-12-14T05:12:41;97462.09;;;8.57;85.00
15884;BME280;8040;50.254;10.960;2023-12-14T05:15:06;97468.09;;;8.54;84.44
15884;BME280;8040;50.254;10.960;2023-12-14T05:17:32;97473.69;;;8.57;84.67
15884;BME280;8040;50.254;10.960;2023-12-14T05:19:58;97488.50;;;8.60;84.17
15884;BME280;8040;50.254;10.960;2023-12-14T05:22:23;97496.13;;;8.58;84.65
15884;BME280;8040;50.254;10.960;2023-12-14T05:24:49;97500.53;;;8.54;84.36
15884;BME280;8040;50.254;10.960;2023-12-14T05:27:14;97504.63;;;8.51;84.64
15884;BME280;8040;50.254;10.960;2023-12-14T05:29:39;97505.44;;;8.52;84.75
15884;BME280;8040;50.254;10.960;2023-12-14T05:32:05;97514.56;;;8.56;84.73
15884;BME280;8040;50.254;10.960;2023-12-14T05:34:45;97510.94;;;8.60;83.78
15884;BME280;8040;50.254;10.960;2023-12-14T05:37:10;97513.75;;;8.55;84.23
15884;BME280;8040;50.254;10.960;2023-12-14T05:39:36;97522.03;;;8.59;84.51
15884;BME280;8040;50.254;10.960;2023-12-14T05:42:01;97526.03;;;8.61;83.71
15884;BME280;8040;50.254;10.960;2023-12-14T05:44:26;97532.56;;;8.60;83.80
15884;BME280;8040;50.254;10.960;2023-12-14T05:46:52;97533.34;;;8.61;83.76
15884;BME280;8040;50.254;10.960;2023-12-14T05:49:17;97538.25;;;8.59;83.76
15884;BME280;8040;50.254;10.960;2023-12-14T05:51:42;97532.75;;;8.64;83.34
15884;BME280;8040;50.254;10.960;2023-12-14T05:54:08;97537.84;;;8.65;83.49
15884;BME280;8040;50.254;10.960;2023-12-14T05:56:33;97534.97;;;8.62;83.42
15884;BME280;8040;50.254;10.960;2023-12-14T05:58:59;97543.56;;;8.64;83.67
15884;BME280;8040;50.254;10.960;2023-12-14T06:01:24;97550.97;;;8.58;83.27
15884;BME280;8040;50.254;10.960;2023-12-14T06:03:49;97554.00;;;8.57;83.47
15884;BME280;8040;50.254;10.960;2023-12-14T06:06:15;97561.09;;;8.53;83.59
15884;BME280;8040;50.254;10.960;2023-12-14T06:08:40;97559.31;;;8.48;83.37
15884;BME280;8040;50.254;10.960;2023-12-14T06:11:06;97554.88;;;8.52;84.02
15884;BME280;8040;50.254;10.960;2023-12-14T06:13:32;97551.38;;;8.52;83.57
15884;BME280;8040;50.254;10.960;2023-12-14T06:15:58;97557.38;;;8.49;83.66
15884;BME280;8040;50.254;10.960;2023-12-14T06:18:24;97556.78;;;8.52;84.20
15884;BME280;8040;50.254;10.960;2023-12-14T06:20:49;97568.19;;;8.49;84.19
15884;BME280;8040;50.254;10.960;2023-12-14T06:23:14;97567.22;;;8.45;84.06
15884;BME280;8040;50.254;10.960;2023-12-14T06:25:40;97577.94;;;8.50;84.08
15884;BME280;8040;50.254;10.960;2023-12-14T06:28:05;97584.94;;;8.51;84.06
15884;BME280;8040;50.254;10.960;2023-12-14T06:30:30;97586.63;;;8.47;84.01
15884;BME280;8040;50.254;10.960;2023-12-14T06:32:55;97588.75;;;8.50;83.87
15884;BME280;8040;50.254;10.960;2023-12-14T06:35:21;97596.84;;;8.50;84.25
15884;BME280;8040;50.254;10.960;2023-12-14T06:37:48;97604.03;;;8.54;84.08
15884;BME280;8040;50.254;10.960;2023-12-14T06:40:13;97612.25;;;8.49;84.29
15884;BME280;8040;50.254;10.960;2023-12-14T06:42:39;97616.53;;;8.50;83.92
15884;BME280;8040;50.254;10.960;2023-12-14T06:45:04;97616.25;;;8.52;84.37
15884;BME280;8040;50.254;10.960;2023-12-14T06:47:30;97617.38;;;8.51;84.15
15884;BME280;8040;50.254;10.960;2023-12-14T06:49:56;97623.75;;;8.55;84.66
15884;BME280;8040;50.254;10.960;2023-12-14T06:52:22;97621.84;;;8.55;84.44
15884;BME280;8040;50.254;10.960;2023-12-14T06:54:48;97622.06;;;8.59;84.54
15884;BME280;8040;50.254;10.960;2023-12-14T06:57:13;97626.53;;;8.63;84.12
15884;BME280;8040;50.254;10.960;2023-12-14T06:59:38;97632.06;;;8.58;83.36
15884;BME280;8040;50.254;10.960;2023-12-14T07:02:04;97635.28;;;8.60;83.62
15884;BME280;8040;50.254;10.960;2023-12-14T07:04:29;97642.09;;;8.58;83.11
15884;BME280;8040;50.254;10.960;2023-12-14T07:06:54;97641.47;;;8.61;83.20
15884;BME280;8040;50.254;10.960;2023-12-14T07:09:20;97642.56;;;8.60;83.08
15884;BME280;8040;50.254;10.960;2023-12-14T07:11:45;97654.00;;;8.57;82.99
15884;BME280;8040;50.254;10.960;2023-12-14T07:14:11;97658.50;;;8.48;83.81
15884;BME280;8040;50.254;10.960;2023-12-14T07:16:36;97668.19;;;8.49;83.38
15884;BME280;8040;50.254;10.960;2023-12-14T07:19:02;97677.69;;;8.46;83.35
15884;BME280;8040;50.254;10.960;2023-12-14T07:21:30;97675.00;;;8.46;83.81
15884;BME280;8040;50.254;10.960;2023-12-14T07:23:56;97674.41;;;8.49;83.62
15884;BME280;8040;50.254;10.960;2023-12-14T07:26:21;97678.41;;;8.52;83.55
15884;BME280;8040;50.254;10.960;2023-12-14T07:28:46;97680.63;;;8.50;83.81
15884;BME280;8040;50.254;10.960;2023-12-14T07:31:12;97682.81;;;8.48;83.69
15884;BME280;8040;50.254;10.960;2023-12-14T07:33:37;97693.31;;;8.49;83.42
15884;BME280;8040;50.254;10.960;2023-12-14T07:36:03;97686.03;;;8.50;83.58
15884;BME280;8040;50.254;10.960;2023-12-14T07:38:30;97702.25;;;8.50;83.06
15884;BME280;8040;50.254;10.960;2023-12-14T07:40:55;97703.53;;;8.52;83.28
15884;BME280;8040;50.254;10.960;2023-12-14T07:43:20;97710.84;;;8.52;83.34
15884;BME280;8040;50.254;10.960;2023-12-14T07:45:46;97713.34;;;8.48;82.74
15884;BME280;8040;50.254;10.960;2023-12-14T07:48:11;97715.75;;;8.50;83.00
15884;BME280;8040;50.254;10.960;2023-12-14T07:50:36;97725.16;;;8.52;83.10
15884;BME280;8040;50.254;10.960;2023-12-14T07:53:02;97727.84;;;8.52;82.91
15884;BME280;8040;50.254;10.960;2023-12-14T07:55:28;97730.56;;;8.52;83.23
15884;BME280;8040;50.254;10.960;2023-12-14T07:57:54;97735.19;;;8.52;82.77
15884;BME280;8040;50.254;10.960;2023-12-14T08:00:19;97735.47;;;8.50;82.71
15884;BME280;8040;50.254;10.960;2023-12-14T08:02:44;97735.19;;;8.52;83.07
15884;BME280;8040;50.254;10.960;2023-12-14T08:05:10;97739.69;;;8.56;83.48
15884;BME280;8040;50.254;10.960;2023-12-14T08:07:35;97748.00;;;8.60;83.21
15884;BME280;8040;50.254;10.960;2023-12-14T08:10:01;97749.09;;;8.59;83.39
15884;BME280;8040;50.254;10.960;2023-12-14T08:12:27;97758.50;;;8.61;82.97
15884;BME280;8040;50.254;10.960;2023-12-14T08:14:52;97754.41;;;8.64;82.71
15884;BME280;8040;50.254;10.960;2023-12-14T08:17:17;97755.41;;;8.68;83.14
15884;BME280;8040;50.254;10.960;2023-12-14T08:19:43;97762.94;;;8.71;83.00
15884;BME280;8040;50.254;10.960;2023-12-14T08:22:09;97764.25;;;8.73;83.08
15884;BME280;8040;50.254;10.960;2023-12-14T08:24:38;97771.03;;;8.71;82.39
15884;BME280;8040;50.254;10.960;2023-12-14T08:27:03;97771.13;;;8.66;82.87
15884;BME280;8040;50.254;10.960;2023-12-14T08:29:28;97780.25;;;8.70;82.70
15884;BME280;8040;50.254;10.960;2023-12-14T08:31:54;97785.66;;;8.70;82.78
15884;BME280;8040;50.254;10.960;2023-12-14T08:34:22;97785.66;;;8.70;82.95
15884;BME280;8040;50.254;10.960;2023-12-14T08:36:47;97794.06;;;8.68;83.22
15884;BME280;8040;50.254;10.960;2023-12-14T08:39:13;97801.69;;;8.66;82.99
15884;BME280;8040;50.254;10.960;2023-12-14T08:41:38;97805.50;;;8.65;82.95
15884;BME280;8040;50.254;10.960;2023-12-14T08:44:03;97810.28;;;8.68;83.37
15884;BME280;8040;50.254;10.960;2023-12-14T08:46:29;97808.91;;;8.71;83.12
15884;BME280;8040;50.254;10.960;2023-12-14T08:48:59;97815.59;;;8.73;82.91
15884;BME280;8040;50.254;10.960;2023-12-14T08:51:25;97785.72;;;8.51;83.06
15884;BME280;8040;50.254;10.960;2023-12-14T08:53:51;97825.00;;;8.62;82.79
15884;BME280;8040;50.254;10.960;2023-12-14T08:56:17;97823.88;;;8.63;83.52
15884;BME280;8040;50.254;10.960;2023-12-14T08:58:42;97828.00;;;8.61;82.62
15884;BME280;8040;50.254;10.960;2023-12-14T09:01:08;97837.63;;;8.67;83.58
15884;BME280;8040;50.254;10.960;2023-12-14T09:03:33;97843.22;;;8.70;82.81
15884;BME280;8040;50.254;10.960;2023-12-14T09:05:58;97846.81;;;8.66;83.44
15884;BME280;8040;50.254;10.960;2023-12-14T09:08:24;97848.06;;;8.73;83.32
15884;BME280;8040;50.254;10.960;2023-12-14T09:10:54;97844.34;;;8.69;83.91
15884;BME280;8040;50.254;10.960;2023-12-14T09:13:20;97851.53;;;8.74;84.28
15884;BME280;8040;50.254;10.960;2023-12-14T09:15:45;97860.09;;;8.81;83.79
15884;BME280;8040;50.254;10.960;2023-12-14T09:18:10;97868.84;;;8.91;83.82
15884;BME280;8040;50.254;10.960;2023-12-14T09:20:36;97868.53;;;8.93;83.60
15884;BME280;8040;50.254;10.960;2023-12-14T09:23:02;97885.25;;;8.95;83.64
15884;BME280;8040;50.254;10.960;2023-12-14T09:25:28;97886.94;;;8.91;82.23
15884;BME280;8040;50.254;10.960;2023-12-14T09:27:53;97885.84;;;8.92;82.03
15884;BME280;8040;50.254;10.960;2023-12-14T09:30:18;97892.28;;;8.96;82.11
15884;BME280;8040;50.254;10.960;2023-12-14T09:32:44;97896.09;;;8.95;82.19
15884;BME280;8040;50.254;10.960;2023-12-14T09:35:09;97901.69;;;8.98;82.30
15884;BME280;8040;50.254;10.960;2023-12-14T09:37:34;97894.47;;;8.94;82.59
15884;BME280;8040;50.254;10.960;2023-12-14T09:40:00;97903.09;;;8.96;82.18
15884;BME280;8040;50.254;10.960;2023-12-14T09:42:27;97902.59;;;8.94;82.51
15884;BME280;8040;50.254;10.960;2023-12-14T09:44:52;97911.22;;;8.96;82.45
15884;BME280;8040;50.254;10.960;2023-12-14T09:47:18;97905.59;;;8.92;82.50
15884;BME280;8040;50.254;10.960;2023-12-14T09:49:44;97906.69;;;8.91;81.82
15884;BME280;8040;50.254;10.960;2023-12-14T09:52:10;97907.72;;;8.95;81.86
15884;BME280;8040;50.254;10.960;2023-12-14T09:54:42;97918.81;;;8.94;82.09
15884;BME280;8040;50.254;10.960;2023-12-14T09:57:08;97916.69;;;8.91;82.03
15884;BME280;8040;50.254;10.960;2023-12-14T09:59:33;97927.03;;;8.89;82.44
15884;BME280;8040;50.254;10.960;2023-12-14T10:02:08;97926.88;;;8.80;81.53
15884;BME280;8040;50.254;10.960;2023-12-14T10:04:34;97930.69;;;8.79;82.50
15884;BME280;8040;50.254;10.960;2023-12-14T10:07:00;97938.13;;;8.87;82.73
15884;BME280;8040;50.254;10.960;2023-12-14T10:09:31;97930.53;;;8.89;83.05
15884;BME280;8040;50.254;10.960;2023-12-14T10:12:04;97935.34;;;8.92;82.75
15884;BME280;8040;50.254;10.960;2023-12-14T10:14:30;97945.34;;;8.92;83.34
15884;BME280;8040;50.254;10.960;2023-12-14T10:16:55;97933.53;;;8.88;82.53
15884;BME280;8040;50.254;10.960;2023-12-14T10:19:21;97933.53;;;8.88;82.85
15884;BME280;8040;50.254;10.960;2023-12-14T10:21:47;97935.06;;;8.94;83.37
15884;BME280;8040;50.254;10.960;2023-12-14T10:24:12;97938.19;;;9.01;83.15
15884;BME280;8040;50.254;10.960;2023-12-14T10:26:38;97941.56;;;8.93;82.45
15884;BME280;8040;50.254;10.960;2023-12-14T10:29:03;97946.97;;;8.93;83.19
15884;BME280;8040;50.254;10.960;2023-12-14T10:31:32;97947.41;;;9.00;83.36
15884;BME280;8040;50.254;10.960;2023-12-14T10:34:05;97938.25;;;8.96;82.90
15884;BME280;8040;50.254;10.960;2023-12-14T10:36:30;97949.88;;;8.96;82.97
15884;BME280;8040;50.254;10.960;2023-12-14T10:38:58;97949.69;;;8.93;82.95
15884;BME280;8040;50.254;10.960;2023-12-14T10:41:23;97947.56;;;8.90;83.27
15884;BME280;8040;50.254;10.960;2023-12-14T10:43:50;97950.94;;;8.82;83.08
15884;BME280;8040;50.254;10.960;2023-12-14T10:46:16;97947.72;;;8.80;83.28
15884;BME280;8040;50.254;10.960;2023-12-14T10:48:42;97946.72;;;8.76;83.38
15884;BME280;8040;50.254;10.960;2023-12-14T10:51:09;97945.81;;;8.80;84.30
15884;BME280;8040;50.254;10.960;2023-12-14T10:53:36;97949.75;;;8.88;83.85
15884;BME280;8040;50.254;10.960;2023-12-14T10:56:02;97953.66;;;8.82;84.30
15884;BME280;8040;50.254;10.960;2023-12-14T10:59:14;97949.84;;;8.83;84.17
15884;BME280;8040;50.254;10.960;2023-12-14T11:01:21;97963.78;;;8.90;85.04
15884;BME280;8040;50.254;10.960;2023-12-14T11:03:47;97964.28;;;8.92;84.49
15884;BME280;8040;50.254;10.960;2023-12-14T11:08:54;97967.03;;;9.05;83.96
15884;BME280;8040;50.254;10.960;2023-12-14T11:11:20;97969.28;;;9.17;83.55
15884;BME280;8040;50.254;10.960;2023-12-14T11:13:53;97982.13;;;9.25;83.23
15884;BME280;8040;50.254;10.960;2023-12-14T11:16:21;97978.53;;;9.29;81.94
15884;BME280;8040;50.254;10.960;2023-12-14T11:18:47;97988.13;;;9.22;81.47
15884;BME280;8040;50.254;10.960;2023-12-14T11:21:22;97984.72;;;9.16;81.87
15884;BME280;8040;50.254;10.960;2023-12-14T11:23:50;97993.66;;;9.17;82.01
15884;BME280;8040;50.254;10.960;2023-12-14T11:26:20;97995.25;;;9.18;82.80
15884;BME280;8040;50.254;10.960;2023-12-14T11:28:46;97994.44;;;9.17;82.33
15884;BME280;8040;50.254;10.960;2023-12-14T11:31:13;98004.97;;;9.19;82.95
15884;BME280;8040;50.254;10.960;2023-12-14T11:33:38;98015.72;;;9.24;83.34
15884;BME280;8040;50.254;10.960;2023-12-14T11:36:04;98015.78;;;9.19;82.64
15884;BME280;8040;50.254;10.960;2023-12-14T11:38:30;98021.19;;;9.19;82.51
15884;BME280;8040;50.254;10.960;2023-12-14T11:40:55;98020.19;;;9.15;82.90
15884;BME280;8040;50.254;10.960;2023-12-14T11:43:21;98022.47;;;9.08;82.34
15884;BME280;8040;50.254;10.960;2023-12-14T11:45:46;98026.94;;;8.99;82.39
15884;BME280;8040;50.254;10.960;2023-12-14T11:48:12;98033.97;;;9.00;83.53
15884;BME280;8040;50.254;10.960;2023-12-14T11:50:38;98031.97;;;9.05;83.09
15884;BME280;8040;50.254;10.960;2023-12-14T11:53:04;98037.75;;;8.99;83.22
15884;BME280;8040;50.254;10.960;2023-12-14T11:55:30;98038.56;;;8.99;83.03
15884;BME280;8040;50.254;10.960;2023-12-14T11:57:56;98036.72;;;8.95;83.83
15884;BME280;8040;50.254;10.960;2023-12-14T12:00:25;98041.84;;;8.96;83.31
15884;BME280;8040;50.254;10.960;2023-12-14T12:02:50;98037.63;;;8.90;83.69
15884;BME280;8040;50.254;10.960;2023-12-14T12:05:17;98036.38;;;8.83;83.16
15884;BME280;8040;50.254;10.960;2023-12-14T12:07:47;98042.66;;;8.78;83.51
15884;BME280;8040;50.254;10.960;2023-12-14T12:10:13;98039.59;;;8.85;84.65
15884;BME280;8040;50.254;10.960;2023-12-14T12:12:38;98041.72;;;8.88;84.16
15884;BME280;8040;50.254;10.960;2023-12-14T12:15:04;98047.06;;;8.93;83.67
15884;BME280;8040;50.254;10.960;2023-12-14T12:17:29;98043.06;;;9.04;84.47
15884;BME280;8040;50.254;10.960;2023-12-14T12:19:59;98050.13;;;9.05;83.52
15884;BME280;8040;50.254;10.960;2023-12-14T12:22:24;98054.44;;;9.06;83.03
15884;BME280;8040;50.254;10.960;2023-12-14T12:24:49;98048.28;;;9.00;83.03
15884;BME280;8040;50.254;10.960;2023-12-14T12:27:14;98056.53;;;9.09;83.60
15884;BME280;8040;50.254;10.960;2023-12-14T12:29:40;98055.59;;;9.00;82.90
15884;BME280;8040;50.254;10.960;2023-12-14T12:32:05;98056.03;;;9.07;82.21
15884;BME280;8040;50.254;10.960;2023-12-14T12:34:30;98061.44;;;9.07;81.33
15884;BME280;8040;50.254;10.960;2023-12-14T12:36:56;98068.59;;;9.16;80.80
15884;BME280;8040;50.254;10.960;2023-12-14T12:39:22;98073.28;;;9.11;79.44
15884;BME280;8040;50.254;10.960;2023-12-14T12:41:48;98073.03;;;9.07;79.59
15884;BME280;8040;50.254;10.960;2023-12-14T12:44:13;98072.19;;;9.12;79.04
15884;BME280;8040;50.254;10.960;2023-12-14T12:46:38;98076.22;;;9.14;79.51
15884;BME280;8040;50.254;10.960;2023-12-14T12:49:04;98076.22;;;9.14;78.17
15884;BME280;8040;50.254;10.960;2023-12-14T12:51:30;98077.06;;;9.10;77.14
15884;BME280;8040;50.254;10.960;2023-12-14T12:53:57;98089.06;;;9.04;77.73
15884;BME280;8040;50.254;10.960;2023-12-14T12:56:23;98081.69;;;9.09;77.94
15884;BME280;8040;50.254;10.960;2023-12-14T12:58:49;98093.31;;;9.10;77.95
15884;BME280;8040;50.254;10.960;2023-12-14T13:01:15;98069.75;;;8.92;78.02
15884;BME280;8040;50.254;10.960;2023-12-14T13:03:40;98099.75;;;9.14;77.50
15884;BME280;8040;50.254;10.960;2023-12-14T13:06:06;98098.28;;;9.03;76.58